sensor_id;sensor_type;location;lat;lon;timestamp;P1;durP1;ratioP1;P2;durP2;ratioP2
70406;SDS011;57821;52.202;0.154;2022-12-20T00:01:41;11.07;;;1.95;;
70406;SDS011;57821;52.202;0.154;2022-12-20T00:04:09;13.68;;;2.95;;
70406;SDS011;57821;52.202;0.154;2022-12-20T00:06:36;8.50;;;1.90;;
70406;SDS011;57821;52.202;0.154;2022-12-20T00:09:04;9.20;;;1.75;;
70406;SDS011;57821;52.202;0.154;2022-12-20T00:11:33;14.77;;;2.55;;
70406;SDS011;57821;52.202;0.154;2022-12-20T00:14:01;10.88;;;1.70;;
70406;SDS011;57821;52.202;0.154;2022-12-20T00:16:27;13.68;;;1.95;;
70406;SDS011;57821;52.202;0.154;2022-12-20T00:18:55;8.45;;;2.00;;
70406;SDS011;57821;52.202;0.154;2022-12-20T00:21:24;11.23;;;1.90;;
70406;SDS011;57821;52.202;0.154;2022-12-20T00:23:52;12.25;;;2.30;;
70406;SDS011;57821;52.202;0.154;2022-12-20T00:26:20;7.70;;;1.73;;
70406;SDS011;57821;52.202;0.154;2022-12-20T00:28:51;10.63;;;2.45;;
70406;SDS011;57821;52.202;0.154;2022-12-20T00:31:19;13.25;;;1.70;;
70406;SDS011;57821;52.202;0.154;2022-12-20T00:33:48;9.25;;;1.85;;
70406;SDS011;57821;52.202;0.154;2022-12-20T00:36:16;12.63;;;3.05;;
70406;SDS011;57821;52.202;0.154;2022-12-20T00:38:45;11.18;;;1.73;;
70406;SDS011;57821;52.202;0.154;2022-12-20T00:41:20;8.13;;;1.65;;
70406;SDS011;57821;52.202;0.154;2022-12-20T00:43:49;8.63;;;1.50;;
70406;SDS011;57821;52.202;0.154;2022-12-20T00:46:16;10.57;;;1.50;;
70406;SDS011;57821;52.202;0.154;2022-12-20T00:48:46;10.23;;;1.52;;
70406;SDS011;57821;52.202;0.154;2022-12-20T00:51:13;11.23;;;1.58;;
70406;SDS011;57821;52.202;0.154;2022-12-20T00:53:43;11.13;;;1.65;;
70406;SDS011;57821;52.202;0.154;2022-12-20T00:56:10;8.90;;;1.50;;
70406;SDS011;57821;52.202;0.154;2022-12-20T00:58:38;12.25;;;2.13;;
70406;SDS011;57821;52.202;0.154;2022-12-20T01:01:10;7.63;;;1.33;;
70406;SDS011;57821;52.202;0.154;2022-12-20T01:03:41;7.95;;;1.58;;
70406;SDS011;57821;52.202;0.154;2022-12-20T01:06:08;7.88;;;1.63;;
70406;SDS011;57821;52.202;0.154;2022-12-20T01:08:35;9.77;;;1.38;;
70406;SDS011;57821;52.202;0.154;2022-12-20T01:11:13;10.65;;;1.40;;
70406;SDS011;57821;52.202;0.154;2022-12-20T01:13:43;7.00;;;1.65;;
70406;SDS011;57821;52.202;0.154;2022-12-20T01:16:13;4.82;;;1.20;;
70406;SDS011;57821;52.202;0.154;2022-12-20T01:18:42;4.10;;;1.25;;
70406;SDS011;57821;52.202;0.154;2022-12-20T01:24:33;3.92;;;1.00;;
70406;SDS011;57821;52.202;0.154;2022-12-20T01:26:59;7.03;;;1.38;;
70406;SDS011;57821;52.202;0.154;2022-12-20T01:29:26;9.35;;;1.00;;
70406;SDS011;57821;52.202;0.154;2022-12-20T01:31:53;8.85;;;1.98;;
70406;SDS011;57821;52.202;0.154;2022-12-20T01:34:19;6.93;;;1.23;;
70406;SDS011;57821;52.202;0.154;2022-12-20T01:36:46;5.72;;;1.10;;
70406;SDS011;57821;52.202;0.154;2022-12-20T01:39:13;8.00;;;1.70;;
70406;SDS011;57821;52.202;0.154;2022-12-20T01:41:42;9.88;;;1.25;;
70406;SDS011;57821;52.202;0.154;2022-12-20T01:46:42;7.97;;;1.00;;
70406;SDS011;57821;52.202;0.154;2022-12-20T01:49:13;6.55;;;1.15;;
70406;SDS011;57821;52.202;0.154;2022-12-20T01:52:21;8.18;;;0.98;;
70406;SDS011;57821;52.202;0.154;2022-12-20T01:54:55;7.82;;;1.63;;
70406;SDS011;57821;52.202;0.154;2022-12-20T01:58:03;5.93;;;1.27;;
70406;SDS011;57821;52.202;0.154;2022-12-20T02:00:33;7.10;;;1.08;;
70406;SDS011;57821;52.202;0.154;2022-12-20T02:03:02;3.65;;;0.88;;
70406;SDS011;57821;52.202;0.154;2022-12-20T02:05:35;5.97;;;0.90;;
70406;SDS011;57821;52.202;0.154;2022-12-20T02:08:04;7.65;;;1.70;;
70406;SDS011;57821;52.202;0.154;2022-12-20T02:13:36;6.85;;;0.98;;
70406;SDS011;57821;52.202;0.154;2022-12-20T02:21:54;5.05;;;0.90;;
70406;SDS011;57821;52.202;0.154;2022-12-20T02:24:39;5.05;;;1.13;;
70406;SDS011;57821;52.202;0.154;2022-12-20T02:27:23;4.40;;;0.95;;
70406;SDS011;57821;52.202;0.154;2022-12-20T02:32:50;6.82;;;1.17;;
70406;SDS011;57821;52.202;0.154;2022-12-20T02:35:23;10.30;;;1.30;;
70406;SDS011;57821;52.202;0.154;2022-12-20T02:37:55;10.43;;;1.17;;
70406;SDS011;57821;52.202;0.154;2022-12-20T02:40:27;7.38;;;1.13;;
70406;SDS011;57821;52.202;0.154;2022-12-20T02:42:58;7.75;;;1.15;;
70406;SDS011;57821;52.202;0.154;2022-12-20T02:45:30;6.50;;;1.60;;
70406;SDS011;57821;52.202;0.154;2022-12-20T02:48:00;8.90;;;1.80;;
70406;SDS011;57821;52.202;0.154;2022-12-20T02:50:34;7.15;;;1.38;;
70406;SDS011;57821;52.202;0.154;2022-12-20T02:53:04;11.13;;;1.95;;
70406;SDS011;57821;52.202;0.154;2022-12-20T02:55:49;10.32;;;1.30;;
70406;SDS011;57821;52.202;0.154;2022-12-20T02:58:29;7.47;;;1.10;;
70406;SDS011;57821;52.202;0.154;2022-12-20T03:01:01;6.80;;;1.27;;
70406;SDS011;57821;52.202;0.154;2022-12-20T03:03:33;11.95;;;1.85;;
70406;SDS011;57821;52.202;0.154;2022-12-20T03:06:01;8.40;;;1.55;;
70406;SDS011;57821;52.202;0.154;2022-12-20T03:08:28;6.80;;;1.20;;
70406;SDS011;57821;52.202;0.154;2022-12-20T03:10:56;9.50;;;1.60;;
70406;SDS011;57821;52.202;0.154;2022-12-20T03:13:24;13.23;;;2.28;;
70406;SDS011;57821;52.202;0.154;2022-12-20T03:15:58;8.80;;;1.90;;
70406;SDS011;57821;52.202;0.154;2022-12-20T03:18:25;7.30;;;1.30;;
70406;SDS011;57821;52.202;0.154;2022-12-20T03:20:51;8.70;;;1.08;;
70406;SDS011;57821;52.202;0.154;2022-12-20T03:23:18;9.45;;;1.60;;
70406;SDS011;57821;52.202;0.154;2022-12-20T03:25:45;9.10;;;1.25;;
70406;SDS011;57821;52.202;0.154;2022-12-20T03:28:19;7.65;;;1.40;;
70406;SDS011;57821;52.202;0.154;2022-12-20T03:30:46;8.98;;;1.15;;
70406;SDS011;57821;52.202;0.154;2022-12-20T03:33:13;6.63;;;1.20;;
70406;SDS011;57821;52.202;0.154;2022-12-20T03:35:40;7.78;;;1.30;;
70406;SDS011;57821;52.202;0.154;2022-12-20T03:38:08;8.27;;;1.02;;
70406;SDS011;57821;52.202;0.154;2022-12-20T03:40:35;7.85;;;1.70;;
70406;SDS011;57821;52.202;0.154;2022-12-20T03:43:01;6.57;;;1.30;;
70406;SDS011;57821;52.202;0.154;2022-12-20T03:45:28;5.50;;;1.42;;
70406;SDS011;57821;52.202;0.154;2022-12-20T03:47:55;7.05;;;1.70;;
70406;SDS011;57821;52.202;0.154;2022-12-20T03:50:24;9.15;;;1.60;;
70406;SDS011;57821;52.202;0.154;2022-12-20T03:52:51;8.73;;;1.40;;
70406;SDS011;57821;52.202;0.154;2022-12-20T03:55:18;8.50;;;1.58;;
70406;SDS011;57821;52.202;0.154;2022-12-20T03:57:44;11.07;;;1.65;;
70406;SDS011;57821;52.202;0.154;2022-12-20T04:00:31;12.35;;;1.60;;
70406;SDS011;57821;52.202;0.154;2022-12-20T04:03:18;10.73;;;1.88;;
70406;SDS011;57821;52.202;0.154;2022-12-20T04:05:45;10.13;;;2.30;;
70406;SDS011;57821;52.202;0.154;2022-12-20T04:08:11;13.88;;;1.80;;
70406;SDS011;57821;52.202;0.154;2022-12-20T04:10:38;11.23;;;1.73;;
70406;SDS011;57821;52.202;0.154;2022-12-20T04:13:06;8.88;;;1.45;;
70406;SDS011;57821;52.202;0.154;2022-12-20T04:15:32;15.32;;;2.22;;
70406;SDS011;57821;52.202;0.154;2022-12-20T04:17:59;14.52;;;2.10;;
70406;SDS011;57821;52.202;0.154;2022-12-20T04:20:26;10.88;;;2.80;;
70406;SDS011;57821;52.202;0.154;2022-12-20T04:23:05;10.90;;;2.05;;
70406;SDS011;57821;52.202;0.154;2022-12-20T04:25:32;9.85;;;1.90;;
70406;SDS011;57821;52.202;0.154;2022-12-20T04:27:58;10.35;;;1.90;;
70406;SDS011;57821;52.202;0.154;2022-12-20T04:30:25;8.90;;;1.60;;
70406;SDS011;57821;52.202;0.154;2022-12-20T04:32:52;10.75;;;2.30;;
70406;SDS011;57821;52.202;0.154;2022-12-20T04:35:19;12.32;;;1.98;;
70406;SDS011;57821;52.202;0.154;2022-12-20T04:37:46;17.85;;;2.70;;
70406;SDS011;57821;52.202;0.154;2022-12-20T04:40:13;9.13;;;1.80;;
70406;SDS011;57821;52.202;0.154;2022-12-20T04:42:51;8.10;;;1.85;;
70406;SDS011;57821;52.202;0.154;2022-12-20T04:45:18;14.20;;;2.17;;
70406;SDS011;57821;52.202;0.154;2022-12-20T04:47:45;8.25;;;1.90;;
70406;SDS011;57821;52.202;0.154;2022-12-20T04:50:15;13.68;;;2.17;;
70406;SDS011;57821;52.202;0.154;2022-12-20T04:52:42;11.05;;;2.05;;
70406;SDS011;57821;52.202;0.154;2022-12-20T04:55:13;15.18;;;2.70;;
70406;SDS011;57821;52.202;0.154;2022-12-20T04:57:40;10.80;;;1.98;;
70406;SDS011;57821;52.202;0.154;2022-12-20T05:00:07;9.65;;;1.65;;
70406;SDS011;57821;52.202;0.154;2022-12-20T05:02:40;13.88;;;2.78;;
70406;SDS011;57821;52.202;0.154;2022-12-20T05:05:11;11.40;;;2.08;;
70406;SDS011;57821;52.202;0.154;2022-12-20T05:07:44;12.73;;;2.22;;
70406;SDS011;57821;52.202;0.154;2022-12-20T05:10:11;8.63;;;2.08;;
70406;SDS011;57821;52.202;0.154;2022-12-20T05:12:38;13.90;;;2.42;;
70406;SDS011;57821;52.202;0.154;2022-12-20T05:15:10;10.15;;;2.25;;
70406;SDS011;57821;52.202;0.154;2022-12-20T05:17:37;8.95;;;2.03;;
70406;SDS011;57821;52.202;0.154;2022-12-20T05:20:04;12.02;;;2.58;;
70406;SDS011;57821;52.202;0.154;2022-12-20T05:22:32;13.02;;;2.28;;
70406;SDS011;57821;52.202;0.154;2022-12-20T05:25:04;12.38;;;2.38;;
70406;SDS011;57821;52.202;0.154;2022-12-20T05:27:35;8.88;;;2.35;;
70406;SDS011;57821;52.202;0.154;2022-12-20T05:30:02;10.00;;;2.20;;
70406;SDS011;57821;52.202;0.154;2022-12-20T05:32:30;11.02;;;2.05;;
70406;SDS011;57821;52.202;0.154;2022-12-20T05:34:57;11.35;;;2.22;;
70406;SDS011;57821;52.202;0.154;2022-12-20T05:37:23;9.68;;;2.47;;
70406;SDS011;57821;52.202;0.154;2022-12-20T05:39:50;9.10;;;1.95;;
70406;SDS011;57821;52.202;0.154;2022-12-20T05:42:20;9.13;;;1.60;;
70406;SDS011;57821;52.202;0.154;2022-12-20T05:44:50;11.80;;;2.08;;
70406;SDS011;57821;52.202;0.154;2022-12-20T05:47:18;6.47;;;1.60;;
70406;SDS011;57821;52.202;0.154;2022-12-20T05:49:46;16.45;;;2.78;;
70406;SDS011;57821;52.202;0.154;2022-12-20T05:52:13;9.32;;;2.30;;
70406;SDS011;57821;52.202;0.154;2022-12-20T05:54:40;10.80;;;2.45;;
70406;SDS011;57821;52.202;0.154;2022-12-20T05:57:13;9.95;;;2.10;;
70406;SDS011;57821;52.202;0.154;2022-12-20T05:59:40;9.05;;;1.90;;
70406;SDS011;57821;52.202;0.154;2022-12-20T06:02:16;11.32;;;2.00;;
70406;SDS011;57821;52.202;0.154;2022-12-20T06:04:44;10.32;;;1.95;;
70406;SDS011;57821;52.202;0.154;2022-12-20T06:07:15;8.82;;;2.03;;
70406;SDS011;57821;52.202;0.154;2022-12-20T06:09:45;7.95;;;1.90;;
70406;SDS011;57821;52.202;0.154;2022-12-20T06:12:14;7.72;;;2.20;;
70406;SDS011;57821;52.202;0.154;2022-12-20T06:14:41;9.30;;;2.17;;
70406;SDS011;57821;52.202;0.154;2022-12-20T06:17:10;8.60;;;1.88;;
70406;SDS011;57821;52.202;0.154;2022-12-20T06:19:37;8.77;;;1.63;;
70406;SDS011;57821;52.202;0.154;2022-12-20T06:22:06;8.45;;;1.83;;
70406;SDS011;57821;52.202;0.154;2022-12-20T06:24:40;11.93;;;1.50;;
70406;SDS011;57821;52.202;0.154;2022-12-20T06:27:14;4.45;;;0.73;;
70406;SDS011;57821;52.202;0.154;2022-12-20T06:29:41;3.28;;;0.60;;
70406;SDS011;57821;52.202;0.154;2022-12-20T06:32:10;5.50;;;0.47;;
70406;SDS011;57821;52.202;0.154;2022-12-20T06:34:37;2.67;;;0.32;;
70406;SDS011;57821;52.202;0.154;2022-12-20T06:37:04;2.60;;;0.38;;
70406;SDS011;57821;52.202;0.154;2022-12-20T06:39:33;1.75;;;0.30;;
70406;SDS011;57821;52.202;0.154;2022-12-20T06:42:03;6.97;;;0.40;;
70406;SDS011;57821;52.202;0.154;2022-12-20T06:44:33;2.75;;;0.35;;
70406;SDS011;57821;52.202;0.154;2022-12-20T06:47:00;4.78;;;0.47;;
70406;SDS011;57821;52.202;0.154;2022-12-20T06:49:28;4.32;;;0.40;;
70406;SDS011;57821;52.202;0.154;2022-12-20T06:51:55;2.22;;;0.65;;
70406;SDS011;57821;52.202;0.154;2022-12-20T06:54:30;2.88;;;0.38;;
70406;SDS011;57821;52.202;0.154;2022-12-20T06:56:57;2.83;;;0.40;;
70406;SDS011;57821;52.202;0.154;2022-12-20T06:59:24;5.95;;;0.55;;
70406;SDS011;57821;52.202;0.154;2022-12-20T07:01:51;7.47;;;1.17;;
70406;SDS011;57821;52.202;0.154;2022-12-20T07:04:18;3.40;;;0.70;;
70406;SDS011;57821;52.202;0.154;2022-12-20T07:06:48;4.68;;;0.60;;
70406;SDS011;57821;52.202;0.154;2022-12-20T07:09:15;2.05;;;0.40;;
70406;SDS011;57821;52.202;0.154;2022-12-20T07:11:42;8.00;;;0.68;;
70406;SDS011;57821;52.202;0.154;2022-12-20T07:14:08;6.65;;;1.10;;
70406;SDS011;57821;52.202;0.154;2022-12-20T07:16:35;2.67;;;0.40;;
70406;SDS011;57821;52.202;0.154;2022-12-20T07:19:02;2.63;;;0.70;;
70406;SDS011;57821;52.202;0.154;2022-12-20T07:21:29;4.97;;;0.90;;
70406;SDS011;57821;52.202;0.154;2022-12-20T07:23:56;4.20;;;0.70;;
70406;SDS011;57821;52.202;0.154;2022-12-20T07:26:22;4.50;;;1.33;;
70406;SDS011;57821;52.202;0.154;2022-12-20T07:28:49;4.97;;;0.70;;
70406;SDS011;57821;52.202;0.154;2022-12-20T07:31:15;5.13;;;0.70;;
70406;SDS011;57821;52.202;0.154;2022-12-20T07:33:42;2.83;;;0.55;;
70406;SDS011;57821;52.202;0.154;2022-12-20T07:36:10;6.07;;;0.70;;
70406;SDS011;57821;52.202;0.154;2022-12-20T07:38:38;4.47;;;0.70;;
70406;SDS011;57821;52.202;0.154;2022-12-20T07:41:09;4.20;;;0.70;;
70406;SDS011;57821;52.202;0.154;2022-12-20T07:43:37;4.30;;;0.57;;
70406;SDS011;57821;52.202;0.154;2022-12-20T07:46:05;5.22;;;0.68;;
70406;SDS011;57821;52.202;0.154;2022-12-20T07:48:32;4.47;;;0.63;;
70406;SDS011;57821;52.202;0.154;2022-12-20T07:51:11;3.60;;;0.57;;
70406;SDS011;57821;52.202;0.154;2022-12-20T07:53:42;4.05;;;0.70;;
70406;SDS011;57821;52.202;0.154;2022-12-20T07:56:12;4.03;;;0.70;;
70406;SDS011;57821;52.202;0.154;2022-12-20T07:58:40;4.40;;;1.00;;
70406;SDS011;57821;52.202;0.154;2022-12-20T08:01:08;4.25;;;1.00;;
70406;SDS011;57821;52.202;0.154;2022-12-20T08:03:41;7.78;;;0.98;;
70406;SDS011;57821;52.202;0.154;2022-12-20T08:06:11;4.97;;;1.10;;
70406;SDS011;57821;52.202;0.154;2022-12-20T08:08:41;4.13;;;0.90;;
70406;SDS011;57821;52.202;0.154;2022-12-20T08:11:12;8.68;;;1.67;;
70406;SDS011;57821;52.202;0.154;2022-12-20T08:13:40;7.18;;;1.23;;
70406;SDS011;57821;52.202;0.154;2022-12-20T08:16:12;7.35;;;0.98;;
70406;SDS011;57821;52.202;0.154;2022-12-20T08:18:39;5.35;;;1.08;;
70406;SDS011;57821;52.202;0.154;2022-12-20T08:21:05;5.63;;;1.42;;
70406;SDS011;57821;52.202;0.154;2022-12-20T08:23:33;7.45;;;3.25;;
70406;SDS011;57821;52.202;0.154;2022-12-20T08:26:00;8.75;;;3.35;;
70406;SDS011;57821;52.202;0.154;2022-12-20T08:28:34;10.25;;;4.03;;
70406;SDS011;57821;52.202;0.154;2022-12-20T08:31:12;9.68;;;3.75;;
70406;SDS011;57821;52.202;0.154;2022-12-20T08:33:39;8.85;;;4.03;;
70406;SDS011;57821;52.202;0.154;2022-12-20T08:36:07;11.93;;;3.72;;
70406;SDS011;57821;52.202;0.154;2022-12-20T08:38:37;12.80;;;4.03;;
70406;SDS011;57821;52.202;0.154;2022-12-20T08:41:05;11.60;;;4.05;;
70406;SDS011;57821;52.202;0.154;2022-12-20T08:43:37;9.00;;;2.80;;
70406;SDS011;57821;52.202;0.154;2022-12-20T08:46:04;11.00;;;3.20;;
70406;SDS011;57821;52.202;0.154;2022-12-20T08:48:31;12.60;;;3.42;;
70406;SDS011;57821;52.202;0.154;2022-12-20T08:50:59;10.15;;;4.50;;
70406;SDS011;57821;52.202;0.154;2022-12-20T08:53:31;12.02;;;4.47;;
70406;SDS011;57821;52.202;0.154;2022-12-20T08:56:05;13.93;;;5.00;;
70406;SDS011;57821;52.202;0.154;2022-12-20T08:58:34;8.05;;;2.30;;
70406;SDS011;57821;52.202;0.154;2022-12-20T09:01:02;7.38;;;2.28;;
70406;SDS011;57821;52.202;0.154;2022-12-20T09:03:32;5.28;;;1.70;;
70406;SDS011;57821;52.202;0.154;2022-12-20T09:05:59;7.47;;;2.00;;
70406;SDS011;57821;52.202;0.154;2022-12-20T09:08:26;9.18;;;1.30;;
70406;SDS011;57821;52.202;0.154;2022-12-20T09:10:53;5.85;;;1.40;;
70406;SDS011;57821;52.202;0.154;2022-12-20T09:13:19;6.85;;;1.40;;
70406;SDS011;57821;52.202;0.154;2022-12-20T09:15:46;6.50;;;1.40;;
70406;SDS011;57821;52.202;0.154;2022-12-20T09:18:12;4.85;;;1.10;;
70406;SDS011;57821;52.202;0.154;2022-12-20T09:20:42;7.70;;;1.20;;
70406;SDS011;57821;52.202;0.154;2022-12-20T09:23:09;7.20;;;1.40;;
70406;SDS011;57821;52.202;0.154;2022-12-20T09:25:35;8.00;;;1.95;;
70406;SDS011;57821;52.202;0.154;2022-12-20T09:28:03;6.47;;;1.77;;
70406;SDS011;57821;52.202;0.154;2022-12-20T09:30:29;5.85;;;2.08;;
70406;SDS011;57821;52.202;0.154;2022-12-20T09:32:56;4.75;;;1.35;;
70406;SDS011;57821;52.202;0.154;2022-12-20T09:35:35;5.28;;;1.40;;
70406;SDS011;57821;52.202;0.154;2022-12-20T09:38:03;8.68;;;1.80;;
70406;SDS011;57821;52.202;0.154;2022-12-20T09:40:30;6.18;;;1.60;;
70406;SDS011;57821;52.202;0.154;2022-12-20T09:42:57;5.78;;;1.02;;
70406;SDS011;57821;52.202;0.154;2022-12-20T09:45:26;13.18;;;2.88;;
70406;SDS011;57821;52.202;0.154;2022-12-20T09:47:54;12.30;;;1.80;;
70406;SDS011;57821;52.202;0.154;2022-12-20T09:50:26;11.73;;;2.20;;
70406;SDS011;57821;52.202;0.154;2022-12-20T09:55:55;5.00;;;1.42;;
70406;SDS011;57821;52.202;0.154;2022-12-20T09:58:29;3.83;;;1.05;;
70406;SDS011;57821;52.202;0.154;2022-12-20T10:01:15;5.78;;;1.17;;
70406;SDS011;57821;52.202;0.154;2022-12-20T10:03:50;7.28;;;1.10;;
70406;SDS011;57821;52.202;0.154;2022-12-20T10:09:18;6.32;;;1.05;;
70406;SDS011;57821;52.202;0.154;2022-12-20T10:20:02;5.32;;;1.02;;
70406;SDS011;57821;52.202;0.154;2022-12-20T10:22:44;7.78;;;2.30;;
70406;SDS011;57821;52.202;0.154;2022-12-20T10:25:23;7.00;;;1.27;;
70406;SDS011;57821;52.202;0.154;2022-12-20T10:27:54;3.92;;;0.90;;
70406;SDS011;57821;52.202;0.154;2022-12-20T10:30:25;3.90;;;0.75;;
70406;SDS011;57821;52.202;0.154;2022-12-20T10:32:53;6.45;;;0.95;;
70406;SDS011;57821;52.202;0.154;2022-12-20T10:38:04;5.15;;;1.10;;
70406;SDS011;57821;52.202;0.154;2022-12-20T10:40:36;6.60;;;2.03;;
70406;SDS011;57821;52.202;0.154;2022-12-20T10:43:25;8.05;;;2.00;;
70406;SDS011;57821;52.202;0.154;2022-12-20T10:45:56;9.63;;;1.30;;
70406;SDS011;57821;52.202;0.154;2022-12-20T10:48:30;5.60;;;1.17;;
70406;SDS011;57821;52.202;0.154;2022-12-20T10:51:00;9.00;;;1.50;;
70406;SDS011;57821;52.202;0.154;2022-12-20T10:53:29;8.88;;;1.45;;
70406;SDS011;57821;52.202;0.154;2022-12-20T10:58:41;11.10;;;1.58;;
70406;SDS011;57821;52.202;0.154;2022-12-20T11:01:12;8.52;;;1.60;;
70406;SDS011;57821;52.202;0.154;2022-12-20T11:03:48;9.77;;;2.65;;
70406;SDS011;57821;52.202;0.154;2022-12-20T11:06:15;8.52;;;1.73;;
70406;SDS011;57821;52.202;0.154;2022-12-20T11:08:43;10.57;;;2.15;;
70406;SDS011;57821;52.202;0.154;2022-12-20T11:11:22;14.05;;;1.83;;
70406;SDS011;57821;52.202;0.154;2022-12-20T11:13:50;12.43;;;1.85;;
70406;SDS011;57821;52.202;0.154;2022-12-20T11:21:49;11.48;;;1.50;;
70406;SDS011;57821;52.202;0.154;2022-12-20T11:24:23;16.80;;;2.08;;
70406;SDS011;57821;52.202;0.154;2022-12-20T11:35:38;9.05;;;1.70;;
70406;SDS011;57821;52.202;0.154;2022-12-20T11:43:45;15.32;;;1.60;;
70406;SDS011;57821;52.202;0.154;2022-12-20T11:49:56;12.68;;;1.67;;
70406;SDS011;57821;52.202;0.154;2022-12-20T11:52:38;8.50;;;1.67;;
70406;SDS011;57821;52.202;0.154;2022-12-20T11:57:50;16.40;;;1.83;;
70406;SDS011;57821;52.202;0.154;2022-12-20T12:00:56;15.35;;;2.30;;
70406;SDS011;57821;52.202;0.154;2022-12-20T12:03:36;19.20;;;2.60;;
70406;SDS011;57821;52.202;0.154;2022-12-20T12:06:06;14.10;;;2.13;;
70406;SDS011;57821;52.202;0.154;2022-12-20T12:11:46;12.35;;;2.30;;
70406;SDS011;57821;52.202;0.154;2022-12-20T12:14:43;20.50;;;2.53;;
70406;SDS011;57821;52.202;0.154;2022-12-20T12:17:26;22.55;;;2.95;;
70406;SDS011;57821;52.202;0.154;2022-12-20T12:20:06;18.83;;;2.60;;
70406;SDS011;57821;52.202;0.154;2022-12-20T12:22:45;11.27;;;1.45;;
70406;SDS011;57821;52.202;0.154;2022-12-20T12:25:15;13.82;;;2.10;;
70406;SDS011;57821;52.202;0.154;2022-12-20T12:27:43;18.35;;;2.40;;
70406;SDS011;57821;52.202;0.154;2022-12-20T12:30:14;26.13;;;2.92;;
70406;SDS011;57821;52.202;0.154;2022-12-20T12:43:43;17.73;;;2.72;;
70406;SDS011;57821;52.202;0.154;2022-12-20T12:46:30;23.25;;;3.45;;
70406;SDS011;57821;52.202;0.154;2022-12-20T12:49:01;15.40;;;2.17;;
70406;SDS011;57821;52.202;0.154;2022-12-20T12:51:34;26.70;;;3.20;;
70406;SDS011;57821;52.202;0.154;2022-12-20T12:56:49;21.55;;;3.05;;
70406;SDS011;57821;52.202;0.154;2022-12-20T13:04:26;14.57;;;2.60;;
70406;SDS011;57821;52.202;0.154;2022-12-20T13:17:46;15.85;;;2.75;;
70406;SDS011;57821;52.202;0.154;2022-12-20T13:25:46;16.88;;;2.42;;
70406;SDS011;57821;52.202;0.154;2022-12-20T13:38:47;21.08;;;2.72;;
70406;SDS011;57821;52.202;0.154;2022-12-20T13:44:41;18.25;;;3.13;;
70406;SDS011;57821;52.202;0.154;2022-12-20T13:47:13;17.48;;;3.33;;
70406;SDS011;57821;52.202;0.154;2022-12-20T13:49:48;19.38;;;3.30;;
70406;SDS011;57821;52.202;0.154;2022-12-20T13:52:25;13.63;;;2.30;;
70406;SDS011;57821;52.202;0.154;2022-12-20T13:54:55;15.82;;;3.10;;
70406;SDS011;57821;52.202;0.154;2022-12-20T13:57:26;14.70;;;2.63;;
70406;SDS011;57821;52.202;0.154;2022-12-20T13:59:56;16.08;;;2.97;;
70406;SDS011;57821;52.202;0.154;2022-12-20T14:02:33;19.23;;;2.67;;
70406;SDS011;57821;52.202;0.154;2022-12-20T14:05:06;17.10;;;3.25;;
70406;SDS011;57821;52.202;0.154;2022-12-20T14:07:40;19.25;;;3.58;;
70406;SDS011;57821;52.202;0.154;2022-12-20T14:10:19;20.63;;;2.78;;
70406;SDS011;57821;52.202;0.154;2022-12-20T14:12:49;15.60;;;2.80;;
70406;SDS011;57821;52.202;0.154;2022-12-20T14:15:23;20.35;;;2.92;;
70406;SDS011;57821;52.202;0.154;2022-12-20T14:18:03;20.08;;;3.20;;
70406;SDS011;57821;52.202;0.154;2022-12-20T14:20:32;16.80;;;2.53;;
70406;SDS011;57821;52.202;0.154;2022-12-20T14:23:03;18.35;;;2.70;;
70406;SDS011;57821;52.202;0.154;2022-12-20T14:25:41;18.17;;;2.35;;
70406;SDS011;57821;52.202;0.154;2022-12-20T14:28:15;14.43;;;2.45;;
70406;SDS011;57821;52.202;0.154;2022-12-20T14:31:04;16.35;;;3.10;;
70406;SDS011;57821;52.202;0.154;2022-12-20T14:33:38;20.98;;;5.80;;
70406;SDS011;57821;52.202;0.154;2022-12-20T14:36:07;23.30;;;2.97;;
70406;SDS011;57821;52.202;0.154;2022-12-20T14:38:34;14.25;;;2.33;;
70406;SDS011;57821;52.202;0.154;2022-12-20T14:41:01;23.92;;;3.03;;
70406;SDS011;57821;52.202;0.154;2022-12-20T14:43:31;24.23;;;3.60;;
70406;SDS011;57821;52.202;0.154;2022-12-20T14:52:03;18.80;;;3.08;;
70406;SDS011;57821;52.202;0.154;2022-12-20T14:57:38;17.92;;;3.28;;
70406;SDS011;57821;52.202;0.154;2022-12-20T15:00:14;26.17;;;3.67;;
70406;SDS011;57821;52.202;0.154;2022-12-20T15:02:51;23.70;;;3.30;;
70406;SDS011;57821;52.202;0.154;2022-12-20T15:10:47;35.38;;;4.63;;
70406;SDS011;57821;52.202;0.154;2022-12-20T15:13:34;28.65;;;3.75;;
70406;SDS011;57821;52.202;0.154;2022-12-20T15:16:02;20.63;;;3.25;;
70406;SDS011;57821;52.202;0.154;2022-12-20T15:18:32;23.10;;;3.85;;
70406;SDS011;57821;52.202;0.154;2022-12-20T15:21:33;21.10;;;2.50;;
70406;SDS011;57821;52.202;0.154;2022-12-20T15:23:56;22.38;;;3.38;;
70406;SDS011;57821;52.202;0.154;2022-12-20T15:26:25;19.20;;;3.35;;
70406;SDS011;57821;52.202;0.154;2022-12-20T15:28:52;24.90;;;5.07;;
70406;SDS011;57821;52.202;0.154;2022-12-20T15:31:19;20.63;;;3.28;;
70406;SDS011;57821;52.202;0.154;2022-12-20T15:33:54;16.80;;;3.53;;
70406;SDS011;57821;52.202;0.154;2022-12-20T15:36:23;23.67;;;3.70;;
70406;SDS011;57821;52.202;0.154;2022-12-20T15:38:51;30.77;;;5.97;;
70406;SDS011;57821;52.202;0.154;2022-12-20T15:41:39;35.50;;;6.95;;
70406;SDS011;57821;52.202;0.154;2022-12-20T15:44:26;28.50;;;5.47;;
70406;SDS011;57821;52.202;0.154;2022-12-20T15:46:54;27.95;;;4.75;;
70406;SDS011;57821;52.202;0.154;2022-12-20T15:49:22;20.45;;;4.57;;
70406;SDS011;57821;52.202;0.154;2022-12-20T15:51:58;24.48;;;3.67;;
70406;SDS011;57821;52.202;0.154;2022-12-20T15:54:29;29.88;;;4.28;;
70406;SDS011;57821;52.202;0.154;2022-12-20T15:56:58;23.63;;;3.38;;
70406;SDS011;57821;52.202;0.154;2022-12-20T15:59:26;21.40;;;3.42;;
70406;SDS011;57821;52.202;0.154;2022-12-20T16:02:23;29.70;;;3.47;;
70406;SDS011;57821;52.202;0.154;2022-12-20T16:04:51;30.98;;;3.88;;
70406;SDS011;57821;52.202;0.154;2022-12-20T16:07:19;23.85;;;3.45;;
70406;SDS011;57821;52.202;0.154;2022-12-20T16:09:45;24.40;;;3.20;;
70406;SDS011;57821;52.202;0.154;2022-12-20T16:12:12;22.52;;;4.70;;
70406;SDS011;57821;52.202;0.154;2022-12-20T16:14:41;21.80;;;3.92;;
70406;SDS011;57821;52.202;0.154;2022-12-20T16:17:13;24.35;;;3.70;;
70406;SDS011;57821;52.202;0.154;2022-12-20T16:19:41;26.65;;;3.55;;
70406;SDS011;57821;52.202;0.154;2022-12-20T16:22:15;27.65;;;3.97;;
70406;SDS011;57821;52.202;0.154;2022-12-20T16:24:46;17.40;;;3.38;;
70406;SDS011;57821;52.202;0.154;2022-12-20T16:27:13;27.13;;;3.50;;
70406;SDS011;57821;52.202;0.154;2022-12-20T16:29:40;30.65;;;5.43;;
70406;SDS011;57821;52.202;0.154;2022-12-20T16:32:13;26.15;;;4.00;;
70406;SDS011;57821;52.202;0.154;2022-12-20T16:34:41;26.13;;;4.00;;
70406;SDS011;57821;52.202;0.154;2022-12-20T16:37:08;24.05;;;4.03;;
70406;SDS011;57821;52.202;0.154;2022-12-20T16:39:35;29.20;;;4.78;;
70406;SDS011;57821;52.202;0.154;2022-12-20T16:42:01;22.42;;;3.40;;
70406;SDS011;57821;52.202;0.154;2022-12-20T16:44:28;22.95;;;4.43;;
70406;SDS011;57821;52.202;0.154;2022-12-20T16:46:56;20.65;;;3.85;;
70406;SDS011;57821;52.202;0.154;2022-12-20T16:49:22;22.75;;;4.53;;
70406;SDS011;57821;52.202;0.154;2022-12-20T16:51:49;28.67;;;4.82;;
70406;SDS011;57821;52.202;0.154;2022-12-20T16:54:17;25.02;;;3.90;;
70406;SDS011;57821;52.202;0.154;2022-12-20T16:56:48;22.77;;;3.72;;
70406;SDS011;57821;52.202;0.154;2022-12-20T16:59:16;15.90;;;3.10;;
70406;SDS011;57821;52.202;0.154;2022-12-20T17:01:47;13.23;;;2.63;;
70406;SDS011;57821;52.202;0.154;2022-12-20T17:04:15;28.45;;;4.25;;
70406;SDS011;57821;52.202;0.154;2022-12-20T17:06:43;25.42;;;3.72;;
70406;SDS011;57821;52.202;0.154;2022-12-20T17:09:10;24.83;;;4.40;;
70406;SDS011;57821;52.202;0.154;2022-12-20T17:11:37;18.48;;;3.65;;